This is the latest recevied weather packets stored in our database for station/object KE2LU. If no packets are shown the sender has not sent any weather packets the latest 10 day(s).
| Time | Temp. | Humidity | Pressure | Rain* | Wind** | Luminosity | Snow |
|---|---|---|---|---|---|---|---|
| 1777447502 | 11.11° C | 90% | 1012.9 hPa | 0 mm | - | - | - |
| 1777442402 | 11.11° C | 88% | 1013 hPa | 0 mm | - | - | - |
| 1777441202 | 11.11° C | 88% | 1012.9 hPa | 0 mm | - | - | - |
| 1777436103 | 12.22° C | 83% | 1013.5 hPa | 0 mm | - | - | - |
| 1777435503 | 12.22° C | 82% | 1013.5 hPa | 0 mm | - | - | - |
| 1777434603 | 12.78° C | 81% | 1013.4 hPa | 0 mm | - | - | - |
| 1777429203 | 13.33° C | 79% | 1013.6 hPa | 0 mm | - | - | - |
| 1777428303 | 13.33° C | 79% | 1013.5 hPa | 0 mm | - | - | - |
| 1777426503 | 13.33° C | 78% | 1013.6 hPa | 0 mm | - | - | - |
| 1777425903 | 13.33° C | 77% | 1013.5 hPa | 0 mm | - | - | - |
| 1777423202 | 14.44° C | 73% | 1012.9 hPa | 0 mm | - | - | - |
| 1777422003 | 15° C | 71% | 1012.8 hPa | 0 mm | - | - | - |
| 1777421103 | 15.56° C | 69% | 1013 hPa | 0 mm | - | - | - |
| 1777419903 | 16.11° C | 70% | 1013 hPa | 0 mm | - | - | - |
| 1777418703 | 16.11° C | 69% | 1012.8 hPa | 0 mm | - | - | - |
| 1777416003 | 17.22° C | 62% | 1012.8 hPa | 0 mm | - | - | - |
| 1777413903 | 17.78° C | 60% | 1012.8 hPa | 0 mm | - | - | - |
| 1777413603 | 17.78° C | 60% | 1012.8 hPa | 0 mm | - | - | - |
| 1777412403 | 17.78° C | 58% | 1012.7 hPa | 0 mm | - | - | - |
| 1777410904 | 18.33° C | 59% | 1012.8 hPa | 0 mm | - | - | - |
| 1777408503 | 18.89° C | 56% | 1012.6 hPa | 0 mm | - | - | - |
| 1777407603 | 18.33° C | 55% | 1012.8 hPa | 0 mm | - | - | - |
| 1777405803 | 18.33° C | 54% | 1012.9 hPa | 0 mm | - | - | - |
| 1777405503 | 18.89° C | 54% | 1012.8 hPa | 0 mm | - | - | - |
| 1777404903 | 18.33° C | 55% | 1012.7 hPa | 0 mm | - | - | - |
* Rain latest hour (hover to see other rain measurements)
** Current wind speed in m/s (hover to see current wind gust speed)